Lockhart, California
Current Conditions -  °F | °C
As of 6:55 PM on Thursday 27 Nov 2014 (Local Time) from KVCV Reporting Station
Clear Clear  
Wind Chill: 52°   Ceiling: Unl
Heat Index: 52°   Visibility: 10mi
Dew Point: 12°   Wind: 3mph
Humidity: 21%   Direction: 240°WSW
Pressure: 30.16"   Gusts: NA
Location:  35.0194°N, 117.345°W
Report Text: KVCV 280255Z AUTO 24003KT 10SM CLR 11/M11 A3016 RMK AO2
Loading
Personal Weather Stations






























Interactive Weather Map New forecast layout! Learn more

10-Day Weather Forecast

Advertisements
Track Severe Weather on mobile